createdAt,value
2022-08-21T00:01:43.252Z,15.20
2022-08-21T00:04:11.506Z,15.10
2022-08-21T00:06:41.382Z,15.10
2022-08-21T00:09:09.554Z,15.10
2022-08-21T00:11:37.760Z,15.10
2022-08-21T00:14:07.545Z,15.10
2022-08-21T00:16:34.907Z,15.10
2022-08-21T00:19:01.797Z,15.10
2022-08-21T00:21:28.697Z,15.20
2022-08-21T00:23:55.438Z,15.20
2022-08-21T00:26:22.283Z,15.20
2022-08-21T00:28:49.971Z,15.20
2022-08-21T00:31:18.878Z,15.20
2022-08-21T00:33:46.393Z,15.10
2022-08-21T00:36:14.656Z,15.10
2022-08-21T00:38:41.423Z,15.00
2022-08-21T00:41:35.808Z,14.90
2022-08-21T00:43:57.640Z,14.90
2022-08-21T00:46:28.076Z,15.00
2022-08-21T00:48:57.264Z,15.00
2022-08-21T00:51:41.016Z,15.00
2022-08-21T00:54:17.989Z,14.90
2022-08-21T00:56:48.789Z,15.00
2022-08-21T00:59:17.237Z,14.90
2022-08-21T01:01:43.988Z,14.90
2022-08-21T01:04:10.828Z,15.00
2022-08-21T01:06:37.675Z,15.00
2022-08-21T01:09:04.638Z,15.00
2022-08-21T01:11:32.004Z,14.90
2022-08-21T01:13:58.931Z,15.00
2022-08-21T01:16:26.348Z,15.00
2022-08-21T01:18:53.514Z,15.00
2022-08-21T01:21:28.174Z,15.20
2022-08-21T01:23:57.457Z,15.10
2022-08-21T01:26:34.622Z,15.10
2022-08-21T01:29:21.116Z,15.10
2022-08-21T01:31:47.874Z,15.10
2022-08-21T01:34:16.904Z,15.10
2022-08-21T01:36:45.514Z,15.20
2022-08-21T01:39:12.327Z,15.20
2022-08-21T01:41:39.095Z,15.30
2022-08-21T01:44:05.907Z,15.40
2022-08-21T01:46:33.429Z,15.40
2022-08-21T01:49:00.637Z,15.40
2022-08-21T01:51:27.394Z,15.30
2022-08-21T01:53:54.092Z,15.30
2022-08-21T01:56:20.860Z,15.30
2022-08-21T01:58:48.710Z,15.30
2022-08-21T02:01:16.219Z,15.20
2022-08-21T02:03:43.191Z,15.20
2022-08-21T02:06:15.933Z,15.20
2022-08-21T02:08:42.753Z,15.30
2022-08-21T02:11:09.520Z,15.10
2022-08-21T02:13:36.388Z,15.00
2022-08-21T02:16:03.457Z,14.90
2022-08-21T02:18:30.702Z,15.00
2022-08-21T02:20:57.452Z,15.10
2022-08-21T02:23:26.572Z,15.10
2022-08-21T02:25:55.860Z,15.00
2022-08-21T02:28:22.987Z,15.00
2022-08-21T02:30:50.853Z,15.10
2022-08-21T02:33:19.111Z,15.10
2022-08-21T02:35:48.397Z,15.00
2022-08-21T02:38:18.935Z,14.90
2022-08-21T02:40:50.934Z,14.80
2022-08-21T02:43:20.000Z,14.80
2022-08-21T02:45:47.696Z,14.80
2022-08-21T02:48:25.601Z,14.70
2022-08-21T02:50:55.571Z,14.80
2022-08-21T02:53:22.873Z,14.80
2022-08-21T02:55:51.250Z,14.80
2022-08-21T02:58:25.512Z,14.80
2022-08-21T03:00:52.544Z,14.70
2022-08-21T03:03:19.496Z,14.70
2022-08-21T03:05:46.202Z,14.80
2022-08-21T03:08:15.035Z,14.70
2022-08-21T03:10:46.004Z,14.70
2022-08-21T03:13:13.624Z,14.70
2022-08-21T03:15:41.110Z,14.80
2022-08-21T03:18:08.446Z,14.80
2022-08-21T03:20:37.021Z,14.80
2022-08-21T03:23:07.659Z,14.80
2022-08-21T03:25:41.357Z,14.80
2022-08-21T03:28:14.938Z,14.80
2022-08-21T03:30:42.997Z,14.70
2022-08-21T03:33:10.395Z,14.70
2022-08-21T03:35:41.476Z,14.70
2022-08-21T03:38:08.558Z,14.70
2022-08-21T03:40:35.437Z,14.60
2022-08-21T03:43:02.123Z,14.60
2022-08-21T03:45:29.903Z,14.60
2022-08-21T03:47:59.799Z,14.50
2022-08-21T03:50:29.470Z,14.50
2022-08-21T03:52:56.886Z,14.50
2022-08-21T03:55:25.128Z,14.50
2022-08-21T03:57:51.954Z,14.50
2022-08-21T04:00:20.508Z,14.40
2022-08-21T04:02:47.858Z,14.40
2022-08-21T04:05:27.891Z,14.30
2022-08-21T04:07:59.394Z,14.40
2022-08-21T04:10:29.005Z,14.30
2022-08-21T04:12:56.710Z,14.30
2022-08-21T04:15:25.232Z,14.30
2022-08-21T04:17:52.440Z,14.40
2022-08-21T04:20:20.606Z,14.40
2022-08-21T04:22:47.475Z,14.50
2022-08-21T04:25:16.068Z,14.50
2022-08-21T04:27:43.046Z,14.50
2022-08-21T04:30:10.877Z,14.50
2022-08-21T04:32:38.999Z,14.50
2022-08-21T04:35:09.934Z,14.50
2022-08-21T04:37:42.180Z,14.50
2022-08-21T04:40:12.423Z,14.50
2022-08-21T04:42:54.370Z,14.40
2022-08-21T04:45:31.735Z,14.40
2022-08-21T04:48:01.545Z,14.40
2022-08-21T04:50:35.924Z,14.30
2022-08-21T04:53:08.076Z,14.30
2022-08-21T04:55:35.007Z,14.30
2022-08-21T04:58:02.088Z,14.20
2022-08-21T05:00:28.879Z,14.20
2022-08-21T05:03:00.114Z,14.30
2022-08-21T05:05:30.050Z,14.30
2022-08-21T05:08:00.006Z,14.30
2022-08-21T05:10:27.041Z,14.30
2022-08-21T05:12:54.924Z,14.30
2022-08-21T05:15:22.567Z,14.20
2022-08-21T05:17:53.583Z,14.30
2022-08-21T05:20:27.401Z,14.30
2022-08-21T05:22:55.217Z,14.30
2022-08-21T05:25:22.336Z,14.30
2022-08-21T05:27:52.235Z,14.40
2022-08-21T05:30:20.675Z,14.50
2022-08-21T05:32:48.391Z,14.60
2022-08-21T05:35:15.201Z,14.60
2022-08-21T05:37:41.873Z,14.70
2022-08-21T05:40:22.384Z,14.90
2022-08-21T05:42:54.685Z,15.00
2022-08-21T05:45:43.383Z,15.20
2022-08-21T05:48:17.075Z,15.40
2022-08-21T05:50:45.352Z,15.70
2022-08-21T05:53:13.658Z,15.80
2022-08-21T05:55:45.892Z,16.00
2022-08-21T05:58:18.029Z,16.20
2022-08-21T06:00:48.124Z,16.30
2022-08-21T06:03:25.171Z,16.40
2022-08-21T06:05:52.562Z,16.60
2022-08-21T06:08:20.137Z,16.70
2022-08-21T06:10:48.465Z,16.80
2022-08-21T06:13:17.142Z,16.90
2022-08-21T06:15:44.266Z,16.90
2022-08-21T06:18:11.536Z,17.00
2022-08-21T06:20:39.319Z,17.20
2022-08-21T06:23:06.525Z,17.20
2022-08-21T06:25:33.352Z,17.30
2022-08-21T06:28:09.376Z,17.50
2022-08-21T06:30:38.138Z,17.60
2022-08-21T06:33:05.231Z,17.70
2022-08-21T06:35:31.963Z,17.90
2022-08-21T06:37:59.334Z,18.10
2022-08-21T06:40:27.535Z,18.30
2022-08-21T06:42:58.134Z,18.50
2022-08-21T06:45:25.292Z,18.90
2022-08-21T06:47:55.122Z,19.30
2022-08-21T06:50:22.004Z,19.90
2022-08-21T06:52:48.732Z,20.30
2022-08-21T06:55:22.405Z,20.70
2022-08-21T06:57:52.596Z,20.80
2022-08-21T07:00:20.536Z,21.70
2022-08-21T07:02:47.230Z,22.30
2022-08-21T07:05:17.892Z,22.40
2022-08-21T07:07:46.370Z,23.10
2022-08-21T07:10:21.834Z,23.70
2022-08-21T07:12:50.706Z,24.00
2022-08-21T07:15:18.309Z,24.70
2022-08-21T07:17:45.249Z,24.80
2022-08-21T07:20:12.127Z,24.90
2022-08-21T07:22:41.895Z,24.80
2022-08-21T07:25:09.191Z,24.90
2022-08-21T07:27:35.912Z,25.70
2022-08-21T07:30:03.159Z,25.40
2022-08-21T07:32:30.291Z,25.60
2022-08-21T07:34:57.000Z,25.70
2022-08-21T07:37:23.691Z,25.90
2022-08-21T07:39:52.099Z,26.00
2022-08-21T07:42:18.894Z,26.30
2022-08-21T07:44:45.649Z,25.80
2022-08-21T07:47:12.546Z,26.30
2022-08-21T07:49:39.331Z,27.20
2022-08-21T07:52:06.167Z,26.40
2022-08-21T07:54:33.880Z,26.40
2022-08-21T07:57:01.895Z,26.60
2022-08-21T07:59:28.826Z,26.90
2022-08-21T08:01:55.785Z,27.20
2022-08-21T08:04:26.330Z,27.40
2022-08-21T08:06:53.982Z,27.70
2022-08-21T08:09:20.819Z,27.40
2022-08-21T08:11:47.556Z,26.90
2022-08-21T08:14:14.347Z,26.60
2022-08-21T08:16:41.088Z,26.60
2022-08-21T08:19:07.847Z,26.00
2022-08-21T08:21:35.139Z,25.90
2022-08-21T08:24:18.475Z,25.60
2022-08-21T08:26:47.142Z,26.00
2022-08-21T08:29:21.838Z,25.60
2022-08-21T08:31:48.596Z,25.10
2022-08-21T08:34:25.191Z,25.90
2022-08-21T08:36:52.648Z,26.60
2022-08-21T08:39:26.820Z,26.30
2022-08-21T08:42:32.714Z,26.40
2022-08-21T08:45:02.737Z,25.70
2022-08-21T08:47:32.081Z,25.90
2022-08-21T08:50:08.315Z,25.80
2022-08-21T08:52:41.665Z,26.40
2022-08-21T08:55:24.206Z,26.40
2022-08-21T08:57:56.002Z,25.70
2022-08-21T09:00:23.906Z,24.60
2022-08-21T09:02:56.432Z,23.60
2022-08-21T09:05:27.980Z,24.10
2022-08-21T09:08:09.771Z,24.50
2022-08-21T09:10:57.318Z,24.30
2022-08-21T09:14:06.287Z,23.50
2022-08-21T09:16:47.985Z,24.10
2022-08-21T09:19:38.226Z,25.00
2022-08-21T09:22:44.532Z,25.80
2022-08-21T09:25:27.700Z,26.50
2022-08-21T09:27:55.074Z,26.80
2022-08-21T09:30:27.220Z,26.60
2022-08-21T09:32:53.936Z,26.30
2022-08-21T09:35:23.630Z,26.10
2022-08-21T09:38:05.347Z,25.30
2022-08-21T09:40:42.135Z,25.40
2022-08-21T09:43:14.869Z,25.30
2022-08-21T09:45:43.680Z,25.80
2022-08-21T09:48:16.367Z,26.40
2022-08-21T09:50:44.195Z,26.60
2022-08-21T09:53:23.147Z,26.90
2022-08-21T09:56:11.483Z,26.80
2022-08-21T09:58:40.153Z,27.50
2022-08-21T10:01:13.275Z,27.60
2022-08-21T10:03:39.989Z,27.20
2022-08-21T10:06:11.556Z,26.00
2022-08-21T10:08:41.436Z,26.00
2022-08-21T10:11:17.079Z,25.20
2022-08-21T10:14:05.426Z,24.90
2022-08-21T10:16:35.126Z,25.10
2022-08-21T10:19:23.724Z,24.80
2022-08-21T10:22:00.544Z,24.50
2022-08-21T10:24:34.736Z,24.30
2022-08-21T10:27:40.608Z,24.40
2022-08-21T10:30:22.230Z,24.50
2022-08-21T10:33:10.135Z,25.30
2022-08-21T10:36:15.697Z,26.10
2022-08-21T10:39:23.420Z,25.90
2022-08-21T10:42:04.491Z,26.40
2022-08-21T10:44:58.860Z,26.90
2022-08-21T10:47:49.508Z,26.80
2022-08-21T10:50:49.931Z,27.20
2022-08-21T10:53:41.083Z,28.00
2022-08-21T10:56:27.617Z,26.50
2022-08-21T10:59:05.331Z,26.50
2022-08-21T11:01:42.958Z,26.30
2022-08-21T11:04:20.356Z,26.70
2022-08-21T11:07:01.280Z,27.10
2022-08-21T11:09:31.896Z,27.20
2022-08-21T11:12:11.487Z,27.10
2022-08-21T11:15:28.734Z,27.60
2022-08-21T11:18:21.047Z,27.70
2022-08-21T11:21:19.319Z,27.80
2022-08-21T11:23:58.270Z,27.90
2022-08-21T11:26:44.063Z,27.50
2022-08-21T11:29:25.766Z,27.00
2022-08-21T11:32:07.518Z,27.00
2022-08-21T11:34:42.823Z,27.00
2022-08-21T11:37:44.482Z,27.10
2022-08-21T11:40:31.377Z,26.60
2022-08-21T11:43:03.993Z,26.40
2022-08-21T11:45:51.604Z,25.80
2022-08-21T11:48:38.210Z,25.80
2022-08-21T11:51:13.552Z,26.50
2022-08-21T11:54:07.445Z,27.30
2022-08-21T11:56:47.633Z,28.10
2022-08-21T11:59:21.793Z,28.80
2022-08-21T12:01:51.712Z,29.00
2022-08-21T12:04:31.783Z,28.50
2022-08-21T12:07:12.894Z,28.00
2022-08-21T12:09:39.897Z,28.10
2022-08-21T12:12:30.331Z,27.30
2022-08-21T12:15:18.084Z,26.80
2022-08-21T12:18:02.715Z,27.40
2022-08-21T12:20:58.315Z,27.60
2022-08-21T12:24:27.846Z,27.10
2022-08-21T12:26:57.364Z,26.70
2022-08-21T12:29:33.347Z,26.40
2022-08-21T12:32:03.659Z,27.00
2022-08-21T12:34:48.651Z,28.40
2022-08-21T12:37:26.891Z,28.50
2022-08-21T12:39:58.556Z,28.40
2022-08-21T12:42:35.679Z,28.10
2022-08-21T12:45:11.903Z,28.40
2022-08-21T12:47:50.393Z,28.50
2022-08-21T12:51:01.621Z,28.70
2022-08-21T12:53:31.176Z,28.70
2022-08-21T12:56:02.325Z,28.70
2022-08-21T12:58:29.580Z,29.00
2022-08-21T13:01:07.552Z,29.00
2022-08-21T13:03:39.003Z,28.80
2022-08-21T13:06:07.058Z,28.60
2022-08-21T13:08:40.787Z,28.60
2022-08-21T13:11:15.091Z,28.90
2022-08-21T13:13:47.167Z,29.20
2022-08-21T13:16:26.333Z,28.00
2022-08-21T13:19:06.353Z,27.40
2022-08-21T13:21:44.331Z,27.50
2022-08-21T13:24:41.385Z,28.20
2022-08-21T13:27:24.505Z,28.90
2022-08-21T13:30:11.075Z,28.70
2022-08-21T13:32:42.051Z,29.50
2022-08-21T13:35:10.861Z,30.00
2022-08-21T13:37:41.359Z,30.20
2022-08-21T13:40:15.892Z,28.80
2022-08-21T13:42:45.430Z,28.00
2022-08-21T13:45:25.359Z,28.10
2022-08-21T13:47:53.901Z,29.30
2022-08-21T13:50:23.869Z,29.40
2022-08-21T13:53:06.056Z,29.60
2022-08-21T13:55:42.689Z,29.10
2022-08-21T13:58:11.839Z,29.60
2022-08-21T14:00:48.040Z,29.40
2022-08-21T14:03:43.399Z,28.40
2022-08-21T14:06:19.956Z,28.50
2022-08-21T14:08:54.834Z,28.10
2022-08-21T14:11:22.065Z,27.60
2022-08-21T14:14:00.059Z,27.30
2022-08-21T14:16:30.160Z,28.30
2022-08-21T14:19:03.947Z,29.10
2022-08-21T14:21:37.987Z,29.50
2022-08-21T14:24:28.729Z,29.30
2022-08-21T14:26:59.472Z,28.80
2022-08-21T14:29:32.595Z,29.50
2022-08-21T14:32:21.734Z,29.10
2022-08-21T14:34:52.828Z,28.10
2022-08-21T14:37:21.718Z,27.60
2022-08-21T14:39:48.453Z,27.70
2022-08-21T14:42:15.480Z,28.90
2022-08-21T14:44:42.566Z,29.00
2022-08-21T14:47:10.372Z,29.30
2022-08-21T14:49:37.135Z,29.30
2022-08-21T14:52:04.182Z,28.10
2022-08-21T14:54:32.715Z,27.90
2022-08-21T14:57:04.428Z,28.00
2022-08-21T14:59:33.699Z,27.80
2022-08-21T15:02:00.594Z,27.70
2022-08-21T15:04:27.382Z,27.50
2022-08-21T15:06:54.089Z,27.00
2022-08-21T15:09:20.835Z,27.20
2022-08-21T15:11:47.837Z,28.20
2022-08-21T15:14:22.676Z,29.60
2022-08-21T15:16:49.948Z,30.70
2022-08-21T15:19:16.719Z,31.50
2022-08-21T15:21:43.610Z,31.90
2022-08-21T15:24:10.549Z,31.10
2022-08-21T15:26:37.494Z,30.20
2022-08-21T15:29:07.128Z,29.70
2022-08-21T15:31:34.732Z,29.90
2022-08-21T15:34:01.580Z,30.20
2022-08-21T15:36:28.323Z,30.20
2022-08-21T15:38:55.038Z,29.70
2022-08-21T15:41:21.827Z,29.80
2022-08-21T15:43:53.976Z,29.90
2022-08-21T15:46:21.681Z,29.70
2022-08-21T15:48:48.686Z,29.50
2022-08-21T15:51:17.541Z,28.90
2022-08-21T15:53:45.457Z,28.30
2022-08-21T15:56:26.589Z,28.10
2022-08-21T15:59:01.214Z,27.70
2022-08-21T16:01:29.404Z,27.50
2022-08-21T16:04:04.675Z,27.40
2022-08-21T16:06:38.597Z,27.20
2022-08-21T16:09:18.216Z,27.40
2022-08-21T16:11:45.424Z,27.30
2022-08-21T16:14:14.991Z,26.90
2022-08-21T16:16:41.744Z,26.50
2022-08-21T16:19:08.983Z,26.00
2022-08-21T16:21:36.462Z,25.90
2022-08-21T16:24:03.703Z,25.80
2022-08-21T16:26:30.864Z,25.70
2022-08-21T16:29:00.990Z,25.40
2022-08-21T16:31:27.790Z,25.30
2022-08-21T16:33:57.233Z,25.40
2022-08-21T16:36:26.323Z,25.30
2022-08-21T16:38:55.257Z,25.20
2022-08-21T16:41:23.833Z,25.30
2022-08-21T16:43:51.801Z,25.50
2022-08-21T16:46:20.609Z,25.70
2022-08-21T16:48:47.614Z,25.80
2022-08-21T16:51:16.079Z,25.80
2022-08-21T16:53:43.616Z,25.70
2022-08-21T16:56:13.207Z,25.50
2022-08-21T16:58:48.168Z,25.40
2022-08-21T17:01:18.297Z,25.60
2022-08-21T17:03:48.235Z,25.40
2022-08-21T17:06:16.758Z,25.20
2022-08-21T17:08:43.537Z,25.30
2022-08-21T17:11:41.416Z,25.30
2022-08-21T17:14:12.541Z,25.30
2022-08-21T17:16:42.158Z,25.30
2022-08-21T17:19:08.925Z,25.10
2022-08-21T17:21:36.066Z,25.10
2022-08-21T17:24:03.038Z,25.10
2022-08-21T17:26:30.179Z,24.90
2022-08-21T17:28:57.071Z,24.80
2022-08-21T17:31:24.028Z,24.70
2022-08-21T17:33:53.395Z,24.70
2022-08-21T17:36:22.975Z,24.60
2022-08-21T17:38:50.717Z,24.60
2022-08-21T17:41:19.704Z,24.50
2022-08-21T17:43:47.213Z,24.50
2022-08-21T17:46:19.602Z,24.30
2022-08-21T17:48:47.363Z,24.20
2022-08-21T17:51:15.215Z,24.10
2022-08-21T17:53:42.536Z,24.10
2022-08-21T17:56:09.889Z,24.00
2022-08-21T17:58:39.174Z,24.00
2022-08-21T18:01:06.107Z,23.90
2022-08-21T18:03:38.343Z,23.80
2022-08-21T18:06:06.421Z,23.70
2022-08-21T18:08:33.940Z,23.60
2022-08-21T18:11:01.459Z,23.40
2022-08-21T18:13:32.477Z,23.20
2022-08-21T18:16:00.257Z,23.10
2022-08-21T18:18:31.629Z,22.90
2022-08-21T18:20:59.038Z,22.70
2022-08-21T18:23:43.117Z,22.70
2022-08-21T18:26:21.922Z,22.50
2022-08-21T18:28:48.858Z,22.30
2022-08-21T18:31:15.566Z,22.20
2022-08-21T18:33:55.956Z,22.10
2022-08-21T18:36:27.097Z,21.90
2022-08-21T18:38:54.676Z,21.90
2022-08-21T18:41:22.012Z,21.80
2022-08-21T18:43:48.910Z,21.70
2022-08-21T18:46:16.202Z,21.60
2022-08-21T18:48:43.803Z,21.50
2022-08-21T18:51:12.207Z,21.30
2022-08-21T18:53:39.197Z,21.10
2022-08-21T18:56:08.309Z,21.00
2022-08-21T18:58:49.533Z,21.20
2022-08-21T19:01:19.451Z,21.10
2022-08-21T19:03:46.215Z,21.00
2022-08-21T19:06:16.949Z,21.00
2022-08-21T19:08:44.984Z,20.80
2022-08-21T19:11:12.329Z,20.60
2022-08-21T19:13:39.917Z,20.40
2022-08-21T19:16:09.625Z,20.40
2022-08-21T19:18:40.745Z,20.30
2022-08-21T19:21:07.862Z,20.10
2022-08-21T19:23:35.229Z,20.00
2022-08-21T19:26:04.188Z,19.90
2022-08-21T19:28:37.166Z,19.90
2022-08-21T19:31:16.341Z,19.60
2022-08-21T19:33:47.610Z,19.60
2022-08-21T19:36:17.922Z,19.40
2022-08-21T19:38:45.813Z,19.50
2022-08-21T19:41:15.759Z,19.40
2022-08-21T19:43:50.658Z,19.30
2022-08-21T19:46:25.609Z,19.30
2022-08-21T19:48:55.053Z,19.20
2022-08-21T19:51:22.067Z,19.30
2022-08-21T19:53:55.237Z,19.40
2022-08-21T19:56:27.913Z,19.30
2022-08-21T19:58:55.047Z,19.30
2022-08-21T20:01:25.215Z,19.10
2022-08-21T20:03:54.743Z,18.90
2022-08-21T20:06:25.673Z,18.80
2022-08-21T20:08:54.675Z,18.80
2022-08-21T20:11:44.528Z,18.70
2022-08-21T20:14:14.204Z,18.60
2022-08-21T20:16:41.623Z,18.70
2022-08-21T20:19:08.601Z,18.50
2022-08-21T20:21:43.503Z,18.40
2022-08-21T20:24:14.744Z,18.30
2022-08-21T20:26:49.455Z,18.30
2022-08-21T20:29:23.957Z,18.20
2022-08-21T20:32:12.329Z,18.20
2022-08-21T20:34:40.520Z,18.20
2022-08-21T20:37:09.128Z,18.20
2022-08-21T20:39:36.178Z,18.20
2022-08-21T20:44:53.874Z,18.10
2022-08-21T20:47:20.849Z,18.10
2022-08-21T20:49:54.591Z,18.00
2022-08-21T20:52:24.332Z,18.00
2022-08-21T20:54:53.963Z,18.00
2022-08-21T20:57:35.531Z,18.00
2022-08-21T21:00:14.552Z,17.90
2022-08-21T21:07:18.785Z,17.80
2022-08-21T21:25:53.891Z,17.50
2022-08-21T21:28:30.467Z,17.40
2022-08-21T21:30:57.812Z,17.40
2022-08-21T21:33:25.105Z,17.40
2022-08-21T21:35:57.737Z,17.40
2022-08-21T21:38:32.584Z,17.50
2022-08-21T21:41:21.417Z,17.60
2022-08-21T21:44:05.789Z,17.60
2022-08-21T21:46:48.120Z,17.70
2022-08-21T21:49:36.058Z,17.70
2022-08-21T21:52:35.318Z,17.80
2022-08-21T21:55:26.640Z,18.00
2022-08-21T21:58:16.881Z,18.00
2022-08-21T22:00:52.066Z,18.10
2022-08-21T22:03:42.938Z,18.10
2022-08-21T22:06:21.834Z,18.20
2022-08-21T22:09:10.299Z,18.30
2022-08-21T22:12:06.267Z,18.40
2022-08-21T22:14:38.363Z,18.50
2022-08-21T22:17:21.108Z,18.60
2022-08-21T22:19:51.291Z,18.70
2022-08-21T22:22:24.763Z,18.70
2022-08-21T22:24:58.169Z,18.70
2022-08-21T22:27:38.488Z,18.70
2022-08-21T22:30:10.288Z,18.60
2022-08-21T22:32:42.762Z,18.70
2022-08-21T22:35:25.872Z,18.70
2022-08-21T22:37:59.379Z,18.70
2022-08-21T22:40:31.969Z,18.70
2022-08-21T22:43:07.197Z,18.70
2022-08-21T22:46:08.665Z,18.70
2022-08-21T22:48:40.109Z,18.70
2022-08-21T22:51:37.085Z,18.70
2022-08-21T22:54:16.855Z,18.70
2022-08-21T22:56:59.280Z,18.80
2022-08-21T22:59:31.893Z,18.70
2022-08-21T23:02:28.874Z,18.70
2022-08-21T23:04:59.607Z,18.60
2022-08-21T23:07:43.528Z,18.60
2022-08-21T23:10:40.844Z,18.50
2022-08-21T23:13:12.823Z,18.40
2022-08-21T23:15:58.455Z,18.30
2022-08-21T23:18:25.502Z,18.10
2022-08-21T23:21:11.053Z,18.00
2022-08-21T23:23:56.453Z,18.00
2022-08-21T23:26:30.002Z,18.00
2022-08-21T23:29:24.911Z,18.00
2022-08-21T23:32:18.219Z,18.00
2022-08-21T23:35:03.025Z,18.00
2022-08-21T23:38:10.325Z,17.80
2022-08-21T23:40:51.090Z,17.80
2022-08-21T23:43:41.675Z,17.80
2022-08-21T23:46:42.469Z,17.90
2022-08-21T23:49:49.515Z,17.90
2022-08-21T23:52:48.512Z,17.80
2022-08-21T23:55:43.439Z,17.80
2022-08-21T23:58:25.587Z,17.80
